sensor_id;sensor_type;location;lat;lon;timestamp;P1;durP1;ratioP1;P2;durP2;ratioP2
61093;SDS011;46976;52.942;6.810;2022-12-18T00:01:14;55.28;;;16.13;;
61093;SDS011;46976;52.942;6.810;2022-12-18T00:03:41;56.30;;;17.70;;
61093;SDS011;46976;52.942;6.810;2022-12-18T00:06:07;53.53;;;17.33;;
61093;SDS011;46976;52.942;6.810;2022-12-18T00:08:34;66.07;;;16.73;;
61093;SDS011;46976;52.942;6.810;2022-12-18T00:11:04;62.13;;;18.90;;
61093;SDS011;46976;52.942;6.810;2022-12-18T00:13:30;58.25;;;16.75;;
61093;SDS011;46976;52.942;6.810;2022-12-18T00:16:01;47.97;;;14.27;;
61093;SDS011;46976;52.942;6.810;2022-12-18T00:18:27;134.98;;;52.25;;
61093;SDS011;46976;52.942;6.810;2022-12-18T00:20:53;58.00;;;15.82;;
61093;SDS011;46976;52.942;6.810;2022-12-18T00:23:20;52.00;;;17.27;;
61093;SDS011;46976;52.942;6.810;2022-12-18T00:25:46;44.22;;;11.70;;
61093;SDS011;46976;52.942;6.810;2022-12-18T00:28:12;49.13;;;15.98;;
61093;SDS011;46976;52.942;6.810;2022-12-18T00:30:38;49.05;;;15.23;;
61093;SDS011;46976;52.942;6.810;2022-12-18T00:33:04;57.65;;;17.20;;
61093;SDS011;46976;52.942;6.810;2022-12-18T00:35:31;140.55;;;51.60;;
61093;SDS011;46976;52.942;6.810;2022-12-18T00:37:57;42.60;;;13.10;;
61093;SDS011;46976;52.942;6.810;2022-12-18T00:40:23;41.08;;;12.48;;
61093;SDS011;46976;52.942;6.810;2022-12-18T00:42:49;58.42;;;17.67;;
61093;SDS011;46976;52.942;6.810;2022-12-18T00:45:25;61.85;;;17.45;;
61093;SDS011;46976;52.942;6.810;2022-12-18T00:47:51;57.10;;;16.52;;
61093;SDS011;46976;52.942;6.810;2022-12-18T00:50:17;51.28;;;15.80;;
61093;SDS011;46976;52.942;6.810;2022-12-18T00:52:43;52.45;;;15.27;;
61093;SDS011;46976;52.942;6.810;2022-12-18T00:55:10;56.67;;;16.67;;
61093;SDS011;46976;52.942;6.810;2022-12-18T00:57:36;52.70;;;15.18;;
61093;SDS011;46976;52.942;6.810;2022-12-18T01:00:04;57.60;;;22.38;;
61093;SDS011;46976;52.942;6.810;2022-12-18T01:02:30;64.43;;;18.33;;
61093;SDS011;46976;52.942;6.810;2022-12-18T01:04:56;53.85;;;15.60;;
61093;SDS011;46976;52.942;6.810;2022-12-18T01:07:22;67.88;;;17.98;;
61093;SDS011;46976;52.942;6.810;2022-12-18T01:09:48;51.55;;;14.90;;
61093;SDS011;46976;52.942;6.810;2022-12-18T01:12:14;60.38;;;20.65;;
61093;SDS011;46976;52.942;6.810;2022-12-18T01:14:40;68.68;;;18.80;;
61093;SDS011;46976;52.942;6.810;2022-12-18T01:17:06;69.93;;;19.10;;
61093;SDS011;46976;52.942;6.810;2022-12-18T01:19:33;66.70;;;19.25;;
61093;SDS011;46976;52.942;6.810;2022-12-18T01:21:59;64.80;;;18.85;;
61093;SDS011;46976;52.942;6.810;2022-12-18T01:24:25;60.72;;;20.00;;
61093;SDS011;46976;52.942;6.810;2022-12-18T01:26:51;134.60;;;59.10;;
61093;SDS011;46976;52.942;6.810;2022-12-18T01:29:17;60.00;;;18.08;;
61093;SDS011;46976;52.942;6.810;2022-12-18T01:31:43;61.20;;;19.45;;
61093;SDS011;46976;52.942;6.810;2022-12-18T01:34:09;65.68;;;18.77;;
61093;SDS011;46976;52.942;6.810;2022-12-18T01:36:37;52.08;;;16.63;;
61093;SDS011;46976;52.942;6.810;2022-12-18T01:39:10;121.97;;;56.17;;
61093;SDS011;46976;52.942;6.810;2022-12-18T01:41:37;61.88;;;17.25;;
61093;SDS011;46976;52.942;6.810;2022-12-18T01:47:07;56.42;;;17.85;;
61093;SDS011;46976;52.942;6.810;2022-12-18T01:49:33;59.60;;;16.98;;
61093;SDS011;46976;52.942;6.810;2022-12-18T01:51:59;62.53;;;19.27;;
61093;SDS011;46976;52.942;6.810;2022-12-18T01:54:25;56.75;;;18.88;;
61093;SDS011;46976;52.942;6.810;2022-12-18T01:56:51;59.30;;;16.98;;
61093;SDS011;46976;52.942;6.810;2022-12-18T01:59:17;62.92;;;19.30;;
61093;SDS011;46976;52.942;6.810;2022-12-18T02:01:44;63.63;;;19.23;;
61093;SDS011;46976;52.942;6.810;2022-12-18T02:04:20;67.63;;;20.20;;
61093;SDS011;46976;52.942;6.810;2022-12-18T02:06:46;66.85;;;16.40;;
61093;SDS011;46976;52.942;6.810;2022-12-18T02:09:18;61.35;;;20.40;;
61093;SDS011;46976;52.942;6.810;2022-12-18T02:25:19;71.35;;;20.40;;
61093;SDS011;46976;52.942;6.810;2022-12-18T02:27:49;60.22;;;19.35;;
61093;SDS011;46976;52.942;6.810;2022-12-18T02:30:16;62.40;;;16.88;;
61093;SDS011;46976;52.942;6.810;2022-12-18T02:32:45;57.85;;;16.92;;
61093;SDS011;46976;52.942;6.810;2022-12-18T02:37:38;55.83;;;15.93;;
61093;SDS011;46976;52.942;6.810;2022-12-18T02:40:05;59.78;;;18.02;;
61093;SDS011;46976;52.942;6.810;2022-12-18T02:42:31;49.22;;;16.52;;
61093;SDS011;46976;52.942;6.810;2022-12-18T02:44:58;67.43;;;19.42;;
61093;SDS011;46976;52.942;6.810;2022-12-18T02:47:27;62.42;;;19.67;;
61093;SDS011;46976;52.942;6.810;2022-12-18T02:55:19;51.97;;;17.23;;
61093;SDS011;46976;52.942;6.810;2022-12-18T02:57:57;59.92;;;18.05;;
61093;SDS011;46976;52.942;6.810;2022-12-18T03:00:40;54.95;;;17.65;;
61093;SDS011;46976;52.942;6.810;2022-12-18T03:03:10;60.65;;;16.27;;
61093;SDS011;46976;52.942;6.810;2022-12-18T03:05:38;56.38;;;15.38;;
61093;SDS011;46976;52.942;6.810;2022-12-18T03:08:07;52.17;;;17.83;;
61093;SDS011;46976;52.942;6.810;2022-12-18T03:10:35;51.30;;;16.30;;
61093;SDS011;46976;52.942;6.810;2022-12-18T03:13:12;47.88;;;15.07;;
61093;SDS011;46976;52.942;6.810;2022-12-18T03:15:47;45.95;;;16.83;;
61093;SDS011;46976;52.942;6.810;2022-12-18T03:18:16;41.65;;;14.25;;
61093;SDS011;46976;52.942;6.810;2022-12-18T03:20:43;52.17;;;17.77;;
61093;SDS011;46976;52.942;6.810;2022-12-18T03:23:11;53.40;;;17.08;;
61093;SDS011;46976;52.942;6.810;2022-12-18T03:25:39;58.23;;;16.03;;
61093;SDS011;46976;52.942;6.810;2022-12-18T03:28:07;43.22;;;14.55;;
61093;SDS011;46976;52.942;6.810;2022-12-18T03:33:02;47.65;;;14.65;;
61093;SDS011;46976;52.942;6.810;2022-12-18T03:35:32;41.15;;;16.17;;
61093;SDS011;46976;52.942;6.810;2022-12-18T03:37:59;43.85;;;15.85;;
61093;SDS011;46976;52.942;6.810;2022-12-18T03:40:31;47.85;;;17.70;;
61093;SDS011;46976;52.942;6.810;2022-12-18T03:43:03;45.72;;;15.82;;
61093;SDS011;46976;52.942;6.810;2022-12-18T03:45:34;46.42;;;16.55;;
61093;SDS011;46976;52.942;6.810;2022-12-18T03:50:36;41.03;;;13.38;;
61093;SDS011;46976;52.942;6.810;2022-12-18T03:55:34;42.65;;;13.73;;
61093;SDS011;46976;52.942;6.810;2022-12-18T03:58:01;47.28;;;15.38;;
61093;SDS011;46976;52.942;6.810;2022-12-18T04:00:29;37.40;;;13.93;;
61093;SDS011;46976;52.942;6.810;2022-12-18T04:02:56;32.80;;;11.10;;
61093;SDS011;46976;52.942;6.810;2022-12-18T04:05:23;31.83;;;13.07;;
61093;SDS011;46976;52.942;6.810;2022-12-18T04:07:50;36.42;;;15.10;;
61093;SDS011;46976;52.942;6.810;2022-12-18T04:10:17;31.05;;;11.75;;
61093;SDS011;46976;52.942;6.810;2022-12-18T04:12:44;41.28;;;14.25;;
61093;SDS011;46976;52.942;6.810;2022-12-18T04:15:10;39.70;;;14.38;;
61093;SDS011;46976;52.942;6.810;2022-12-18T04:17:36;37.38;;;12.93;;
61093;SDS011;46976;52.942;6.810;2022-12-18T04:20:03;33.53;;;12.50;;
61093;SDS011;46976;52.942;6.810;2022-12-18T04:22:29;36.15;;;13.20;;
61093;SDS011;46976;52.942;6.810;2022-12-18T04:24:55;36.20;;;12.77;;
61093;SDS011;46976;52.942;6.810;2022-12-18T04:27:21;43.50;;;13.57;;
61093;SDS011;46976;52.942;6.810;2022-12-18T04:29:47;37.17;;;12.73;;
61093;SDS011;46976;52.942;6.810;2022-12-18T04:32:14;37.20;;;13.45;;
61093;SDS011;46976;52.942;6.810;2022-12-18T04:34:40;35.67;;;12.32;;
61093;SDS011;46976;52.942;6.810;2022-12-18T04:37:06;32.75;;;11.63;;
61093;SDS011;46976;52.942;6.810;2022-12-18T04:39:32;38.05;;;12.52;;
61093;SDS011;46976;52.942;6.810;2022-12-18T04:41:58;31.77;;;12.55;;
61093;SDS011;46976;52.942;6.810;2022-12-18T04:44:24;31.67;;;12.93;;
61093;SDS011;46976;52.942;6.810;2022-12-18T04:46:50;30.85;;;12.35;;
61093;SDS011;46976;52.942;6.810;2022-12-18T04:49:16;25.08;;;9.68;;
61093;SDS011;46976;52.942;6.810;2022-12-18T04:51:42;30.80;;;11.80;;
61093;SDS011;46976;52.942;6.810;2022-12-18T04:54:08;36.20;;;12.88;;
61093;SDS011;46976;52.942;6.810;2022-12-18T04:56:34;33.03;;;12.05;;
61093;SDS011;46976;52.942;6.810;2022-12-18T04:59:00;33.28;;;12.20;;
61093;SDS011;46976;52.942;6.810;2022-12-18T05:01:26;33.05;;;11.00;;
61093;SDS011;46976;52.942;6.810;2022-12-18T05:03:52;35.13;;;10.55;;
61093;SDS011;46976;52.942;6.810;2022-12-18T05:06:18;35.33;;;12.02;;
61093;SDS011;46976;52.942;6.810;2022-12-18T05:08:44;35.50;;;11.32;;
61093;SDS011;46976;52.942;6.810;2022-12-18T05:11:12;32.30;;;11.40;;
61093;SDS011;46976;52.942;6.810;2022-12-18T05:13:42;38.47;;;12.23;;
61093;SDS011;46976;52.942;6.810;2022-12-18T05:16:09;38.08;;;11.85;;
61093;SDS011;46976;52.942;6.810;2022-12-18T05:18:35;35.90;;;12.98;;
61093;SDS011;46976;52.942;6.810;2022-12-18T05:21:02;35.47;;;11.95;;
61093;SDS011;46976;52.942;6.810;2022-12-18T05:23:28;31.33;;;11.10;;
61093;SDS011;46976;52.942;6.810;2022-12-18T05:25:55;36.17;;;11.50;;
61093;SDS011;46976;52.942;6.810;2022-12-18T05:28:22;30.38;;;10.90;;
61093;SDS011;46976;52.942;6.810;2022-12-18T05:30:49;32.25;;;11.15;;
61093;SDS011;46976;52.942;6.810;2022-12-18T05:33:16;29.67;;;10.98;;
61093;SDS011;46976;52.942;6.810;2022-12-18T05:35:42;31.05;;;11.45;;
61093;SDS011;46976;52.942;6.810;2022-12-18T05:38:08;29.75;;;10.32;;
61093;SDS011;46976;52.942;6.810;2022-12-18T05:40:34;28.00;;;10.35;;
61093;SDS011;46976;52.942;6.810;2022-12-18T05:43:04;32.05;;;12.07;;
61093;SDS011;46976;52.942;6.810;2022-12-18T05:45:30;30.60;;;11.32;;
61093;SDS011;46976;52.942;6.810;2022-12-18T05:47:57;33.88;;;12.02;;
61093;SDS011;46976;52.942;6.810;2022-12-18T05:50:23;31.20;;;11.45;;
61093;SDS011;46976;52.942;6.810;2022-12-18T05:52:49;35.30;;;11.65;;
61093;SDS011;46976;52.942;6.810;2022-12-18T05:55:15;34.25;;;11.95;;
61093;SDS011;46976;52.942;6.810;2022-12-18T05:57:41;31.23;;;10.35;;
61093;SDS011;46976;52.942;6.810;2022-12-18T06:00:07;37.20;;;12.00;;
61093;SDS011;46976;52.942;6.810;2022-12-18T06:02:33;29.85;;;11.00;;
61093;SDS011;46976;52.942;6.810;2022-12-18T06:04:59;34.17;;;11.57;;
61093;SDS011;46976;52.942;6.810;2022-12-18T06:07:25;31.73;;;10.60;;
61093;SDS011;46976;52.942;6.810;2022-12-18T06:09:51;33.13;;;11.15;;
61093;SDS011;46976;52.942;6.810;2022-12-18T06:12:18;28.52;;;10.15;;
61093;SDS011;46976;52.942;6.810;2022-12-18T06:14:44;35.35;;;11.95;;
61093;SDS011;46976;52.942;6.810;2022-12-18T06:17:10;31.05;;;11.45;;
61093;SDS011;46976;52.942;6.810;2022-12-18T06:19:36;29.63;;;10.43;;
61093;SDS011;46976;52.942;6.810;2022-12-18T06:22:02;32.05;;;11.80;;
61093;SDS011;46976;52.942;6.810;2022-12-18T06:24:28;33.45;;;11.90;;
61093;SDS011;46976;52.942;6.810;2022-12-18T06:26:55;30.00;;;11.02;;
61093;SDS011;46976;52.942;6.810;2022-12-18T06:29:21;27.83;;;10.15;;
61093;SDS011;46976;52.942;6.810;2022-12-18T06:31:47;28.35;;;9.88;;
61093;SDS011;46976;52.942;6.810;2022-12-18T06:34:13;34.33;;;11.55;;
61093;SDS011;46976;52.942;6.810;2022-12-18T06:36:39;29.08;;;11.20;;
61093;SDS011;46976;52.942;6.810;2022-12-18T06:39:05;26.95;;;10.50;;
61093;SDS011;46976;52.942;6.810;2022-12-18T06:41:32;27.08;;;10.77;;
61093;SDS011;46976;52.942;6.810;2022-12-18T06:43:58;23.08;;;9.32;;
61093;SDS011;46976;52.942;6.810;2022-12-18T06:46:24;25.40;;;10.23;;
61093;SDS011;46976;52.942;6.810;2022-12-18T06:48:50;30.27;;;10.23;;
61093;SDS011;46976;52.942;6.810;2022-12-18T06:51:20;28.67;;;10.15;;
61093;SDS011;46976;52.942;6.810;2022-12-18T06:53:46;31.17;;;10.30;;
61093;SDS011;46976;52.942;6.810;2022-12-18T06:56:12;25.83;;;10.40;;
61093;SDS011;46976;52.942;6.810;2022-12-18T06:58:38;29.55;;;11.32;;
61093;SDS011;46976;52.942;6.810;2022-12-18T07:01:06;26.48;;;9.32;;
61093;SDS011;46976;52.942;6.810;2022-12-18T07:03:32;30.20;;;10.63;;
61093;SDS011;46976;52.942;6.810;2022-12-18T07:05:59;30.52;;;11.40;;
61093;SDS011;46976;52.942;6.810;2022-12-18T07:08:25;29.67;;;10.85;;
61093;SDS011;46976;52.942;6.810;2022-12-18T07:10:51;28.98;;;11.13;;
61093;SDS011;46976;52.942;6.810;2022-12-18T07:13:19;30.42;;;10.68;;
61093;SDS011;46976;52.942;6.810;2022-12-18T07:15:45;28.45;;;10.60;;
61093;SDS011;46976;52.942;6.810;2022-12-18T07:18:11;30.58;;;11.13;;
61093;SDS011;46976;52.942;6.810;2022-12-18T07:20:37;26.92;;;10.13;;
61093;SDS011;46976;52.942;6.810;2022-12-18T07:23:03;29.63;;;10.10;;
61093;SDS011;46976;52.942;6.810;2022-12-18T07:25:34;28.87;;;10.90;;
61093;SDS011;46976;52.942;6.810;2022-12-18T07:28:00;26.38;;;9.52;;
61093;SDS011;46976;52.942;6.810;2022-12-18T07:30:26;32.08;;;11.85;;
61093;SDS011;46976;52.942;6.810;2022-12-18T07:32:52;22.40;;;10.00;;
61093;SDS011;46976;52.942;6.810;2022-12-18T07:35:18;28.88;;;11.30;;
61093;SDS011;46976;52.942;6.810;2022-12-18T07:37:45;26.52;;;10.25;;
61093;SDS011;46976;52.942;6.810;2022-12-18T07:40:11;26.33;;;10.63;;
61093;SDS011;46976;52.942;6.810;2022-12-18T07:42:37;28.83;;;9.82;;
61093;SDS011;46976;52.942;6.810;2022-12-18T07:45:03;26.08;;;9.32;;
61093;SDS011;46976;52.942;6.810;2022-12-18T07:47:30;29.63;;;11.30;;
61093;SDS011;46976;52.942;6.810;2022-12-18T07:49:56;33.13;;;11.73;;
61093;SDS011;46976;52.942;6.810;2022-12-18T07:52:22;27.13;;;10.93;;
61093;SDS011;46976;52.942;6.810;2022-12-18T07:54:48;27.60;;;11.30;;
61093;SDS011;46976;52.942;6.810;2022-12-18T07:57:15;26.35;;;9.77;;
61093;SDS011;46976;52.942;6.810;2022-12-18T07:59:41;26.92;;;11.02;;
61093;SDS011;46976;52.942;6.810;2022-12-18T08:02:07;28.08;;;9.48;;
61093;SDS011;46976;52.942;6.810;2022-12-18T08:04:33;26.98;;;11.50;;
61093;SDS011;46976;52.942;6.810;2022-12-18T08:06:59;32.78;;;10.75;;
61093;SDS011;46976;52.942;6.810;2022-12-18T08:09:26;23.70;;;9.07;;
61093;SDS011;46976;52.942;6.810;2022-12-18T08:11:52;24.33;;;10.25;;
61093;SDS011;46976;52.942;6.810;2022-12-18T08:14:18;26.52;;;10.82;;
61093;SDS011;46976;52.942;6.810;2022-12-18T08:16:44;22.27;;;10.07;;
61093;SDS011;46976;52.942;6.810;2022-12-18T08:19:10;21.10;;;10.02;;
61093;SDS011;46976;52.942;6.810;2022-12-18T08:21:36;25.75;;;10.90;;
61093;SDS011;46976;52.942;6.810;2022-12-18T08:24:02;25.55;;;9.95;;
61093;SDS011;46976;52.942;6.810;2022-12-18T08:26:29;24.20;;;9.35;;
61093;SDS011;46976;52.942;6.810;2022-12-18T08:28:56;22.60;;;9.30;;
61093;SDS011;46976;52.942;6.810;2022-12-18T08:31:23;21.50;;;9.57;;
61093;SDS011;46976;52.942;6.810;2022-12-18T08:33:50;23.77;;;8.65;;
61093;SDS011;46976;52.942;6.810;2022-12-18T08:36:17;21.63;;;8.95;;
61093;SDS011;46976;52.942;6.810;2022-12-18T08:38:43;28.42;;;10.85;;
61093;SDS011;46976;52.942;6.810;2022-12-18T08:41:10;23.17;;;10.05;;
61093;SDS011;46976;52.942;6.810;2022-12-18T08:43:37;25.40;;;9.25;;
61093;SDS011;46976;52.942;6.810;2022-12-18T08:46:22;25.17;;;10.15;;
61093;SDS011;46976;52.942;6.810;2022-12-18T08:48:50;24.05;;;9.20;;
61093;SDS011;46976;52.942;6.810;2022-12-18T08:51:16;24.13;;;9.73;;
61093;SDS011;46976;52.942;6.810;2022-12-18T08:53:42;21.38;;;9.30;;
61093;SDS011;46976;52.942;6.810;2022-12-18T08:56:09;23.98;;;8.75;;
61093;SDS011;46976;52.942;6.810;2022-12-18T08:58:35;21.58;;;9.13;;
61093;SDS011;46976;52.942;6.810;2022-12-18T09:01:02;24.20;;;9.02;;
61093;SDS011;46976;52.942;6.810;2022-12-18T09:03:29;25.10;;;9.77;;
61093;SDS011;46976;52.942;6.810;2022-12-18T09:05:55;22.50;;;8.90;;
61093;SDS011;46976;52.942;6.810;2022-12-18T09:08:21;26.15;;;9.10;;
61093;SDS011;46976;52.942;6.810;2022-12-18T09:10:48;19.75;;;8.95;;
61093;SDS011;46976;52.942;6.810;2022-12-18T09:13:14;19.90;;;7.93;;
61093;SDS011;46976;52.942;6.810;2022-12-18T09:15:41;18.85;;;7.05;;
61093;SDS011;46976;52.942;6.810;2022-12-18T09:18:08;21.83;;;8.93;;
61093;SDS011;46976;52.942;6.810;2022-12-18T09:20:35;21.52;;;8.88;;
61093;SDS011;46976;52.942;6.810;2022-12-18T09:23:01;22.15;;;9.68;;
61093;SDS011;46976;52.942;6.810;2022-12-18T09:25:28;20.17;;;8.15;;
61093;SDS011;46976;52.942;6.810;2022-12-18T09:27:58;18.00;;;8.05;;
61093;SDS011;46976;52.942;6.810;2022-12-18T09:30:25;21.15;;;7.97;;
61093;SDS011;46976;52.942;6.810;2022-12-18T09:32:51;20.45;;;8.02;;
61093;SDS011;46976;52.942;6.810;2022-12-18T09:35:17;17.55;;;8.93;;
61093;SDS011;46976;52.942;6.810;2022-12-18T09:37:43;20.20;;;6.80;;
61093;SDS011;46976;52.942;6.810;2022-12-18T09:40:13;17.90;;;6.85;;
61093;SDS011;46976;52.942;6.810;2022-12-18T09:42:39;19.88;;;7.95;;
61093;SDS011;46976;52.942;6.810;2022-12-18T09:45:07;17.95;;;7.13;;
61093;SDS011;46976;52.942;6.810;2022-12-18T09:47:38;18.42;;;7.32;;
61093;SDS011;46976;52.942;6.810;2022-12-18T09:50:06;18.30;;;7.55;;
61093;SDS011;46976;52.942;6.810;2022-12-18T09:52:43;16.58;;;8.00;;
61093;SDS011;46976;52.942;6.810;2022-12-18T09:55:21;22.00;;;7.70;;
61093;SDS011;46976;52.942;6.810;2022-12-18T09:57:49;16.30;;;6.40;;
61093;SDS011;46976;52.942;6.810;2022-12-18T10:00:24;20.63;;;7.03;;
61093;SDS011;46976;52.942;6.810;2022-12-18T10:02:58;17.08;;;7.75;;
61093;SDS011;46976;52.942;6.810;2022-12-18T10:21:56;15.50;;;6.63;;
61093;SDS011;46976;52.942;6.810;2022-12-18T10:26:41;14.52;;;6.50;;
61093;SDS011;46976;52.942;6.810;2022-12-18T10:29:14;16.30;;;6.30;;
61093;SDS011;46976;52.942;6.810;2022-12-18T10:31:41;15.07;;;6.05;;
61093;SDS011;46976;52.942;6.810;2022-12-18T10:34:09;14.25;;;5.90;;
61093;SDS011;46976;52.942;6.810;2022-12-18T10:36:35;13.68;;;5.30;;
61093;SDS011;46976;52.942;6.810;2022-12-18T10:39:14;14.18;;;5.45;;
61093;SDS011;46976;52.942;6.810;2022-12-18T10:41:40;15.35;;;6.47;;
61093;SDS011;46976;52.942;6.810;2022-12-18T10:44:25;17.88;;;5.82;;
61093;SDS011;46976;52.942;6.810;2022-12-18T10:46:54;14.35;;;5.53;;
61093;SDS011;46976;52.942;6.810;2022-12-18T10:49:22;13.35;;;6.03;;
61093;SDS011;46976;52.942;6.810;2022-12-18T10:51:49;16.77;;;7.10;;
61093;SDS011;46976;52.942;6.810;2022-12-18T10:54:17;18.25;;;8.45;;
61093;SDS011;46976;52.942;6.810;2022-12-18T10:56:43;16.20;;;6.50;;
61093;SDS011;46976;52.942;6.810;2022-12-18T10:59:11;13.30;;;5.90;;
61093;SDS011;46976;52.942;6.810;2022-12-18T11:01:53;14.68;;;5.55;;
61093;SDS011;46976;52.942;6.810;2022-12-18T11:04:21;14.43;;;6.47;;
61093;SDS011;46976;52.942;6.810;2022-12-18T11:06:55;19.33;;;7.90;;
61093;SDS011;46976;52.942;6.810;2022-12-18T11:09:23;18.88;;;8.07;;
61093;SDS011;46976;52.942;6.810;2022-12-18T11:11:50;20.13;;;7.72;;
61093;SDS011;46976;52.942;6.810;2022-12-18T11:14:20;14.23;;;5.88;;
61093;SDS011;46976;52.942;6.810;2022-12-18T11:16:47;15.55;;;6.07;;
61093;SDS011;46976;52.942;6.810;2022-12-18T11:21:56;14.65;;;5.65;;
61093;SDS011;46976;52.942;6.810;2022-12-18T11:26:48;13.77;;;6.10;;
61093;SDS011;46976;52.942;6.810;2022-12-18T11:29:16;14.07;;;6.05;;
61093;SDS011;46976;52.942;6.810;2022-12-18T11:31:43;12.55;;;5.53;;
61093;SDS011;46976;52.942;6.810;2022-12-18T11:36:36;14.98;;;9.80;;
61093;SDS011;46976;52.942;6.810;2022-12-18T11:39:49;12.70;;;4.82;;
61093;SDS011;46976;52.942;6.810;2022-12-18T11:44:38;13.32;;;4.75;;
61093;SDS011;46976;52.942;6.810;2022-12-18T11:47:13;11.25;;;4.88;;
61093;SDS011;46976;52.942;6.810;2022-12-18T11:49:41;14.35;;;5.75;;
61093;SDS011;46976;52.942;6.810;2022-12-18T11:52:18;12.43;;;4.60;;
61093;SDS011;46976;52.942;6.810;2022-12-18T11:54:45;13.73;;;8.88;;
61093;SDS011;46976;52.942;6.810;2022-12-18T11:59:55;11.65;;;4.40;;
61093;SDS011;46976;52.942;6.810;2022-12-18T12:05:10;12.77;;;4.28;;
61093;SDS011;46976;52.942;6.810;2022-12-18T12:12:36;10.88;;;4.47;;
61093;SDS011;46976;52.942;6.810;2022-12-18T12:22:54;11.07;;;4.93;;
61093;SDS011;46976;52.942;6.810;2022-12-18T12:30:27;12.82;;;8.45;;
61093;SDS011;46976;52.942;6.810;2022-12-18T12:40:17;11.43;;;4.47;;
61093;SDS011;46976;52.942;6.810;2022-12-18T12:42:45;12.63;;;4.03;;
61093;SDS011;46976;52.942;6.810;2022-12-18T12:45:46;11.07;;;3.90;;
61093;SDS011;46976;52.942;6.810;2022-12-18T12:49:15;10.27;;;3.80;;
61093;SDS011;46976;52.942;6.810;2022-12-18T12:51:17;10.75;;;3.90;;
61093;SDS011;46976;52.942;6.810;2022-12-18T12:53:44;10.43;;;4.07;;
61093;SDS011;46976;52.942;6.810;2022-12-18T12:56:11;12.65;;;7.97;;
61093;SDS011;46976;52.942;6.810;2022-12-18T13:01:27;12.70;;;4.60;;
61093;SDS011;46976;52.942;6.810;2022-12-18T13:03:56;12.65;;;4.18;;
61093;SDS011;46976;52.942;6.810;2022-12-18T13:08:56;12.10;;;4.53;;
61093;SDS011;46976;52.942;6.810;2022-12-18T13:11:30;10.57;;;4.38;;
61093;SDS011;46976;52.942;6.810;2022-12-18T13:14:35;8.98;;;4.00;;
61093;SDS011;46976;52.942;6.810;2022-12-18T13:20:20;12.80;;;4.28;;
61093;SDS011;46976;52.942;6.810;2022-12-18T13:22:46;10.15;;;4.07;;
61093;SDS011;46976;52.942;6.810;2022-12-18T13:28:09;13.23;;;5.15;;
61093;SDS011;46976;52.942;6.810;2022-12-18T13:35:40;12.23;;;4.55;;
61093;SDS011;46976;52.942;6.810;2022-12-18T13:51:23;10.18;;;4.82;;
61093;SDS011;46976;52.942;6.810;2022-12-18T13:56:21;10.80;;;4.30;;
61093;SDS011;46976;52.942;6.810;2022-12-18T14:01:32;15.18;;;10.20;;
61093;SDS011;46976;52.942;6.810;2022-12-18T14:04:08;11.23;;;4.38;;
61093;SDS011;46976;52.942;6.810;2022-12-18T14:06:35;12.02;;;5.03;;
61093;SDS011;46976;52.942;6.810;2022-12-18T14:09:01;13.82;;;5.07;;
61093;SDS011;46976;52.942;6.810;2022-12-18T14:11:28;13.00;;;4.75;;
61093;SDS011;46976;52.942;6.810;2022-12-18T14:13:55;12.07;;;5.40;;
61093;SDS011;46976;52.942;6.810;2022-12-18T14:16:22;12.27;;;4.93;;
61093;SDS011;46976;52.942;6.810;2022-12-18T14:18:52;15.45;;;5.80;;
61093;SDS011;46976;52.942;6.810;2022-12-18T14:21:24;16.23;;;10.82;;
61093;SDS011;46976;52.942;6.810;2022-12-18T14:26:36;13.35;;;5.43;;
61093;SDS011;46976;52.942;6.810;2022-12-18T14:32:03;16.63;;;11.73;;
61093;SDS011;46976;52.942;6.810;2022-12-18T14:34:29;14.25;;;6.80;;
61093;SDS011;46976;52.942;6.810;2022-12-18T14:36:55;14.25;;;6.43;;
61093;SDS011;46976;52.942;6.810;2022-12-18T14:39:22;15.93;;;6.25;;
61093;SDS011;46976;52.942;6.810;2022-12-18T14:41:53;14.73;;;5.90;;
61093;SDS011;46976;52.942;6.810;2022-12-18T14:44:19;14.95;;;5.78;;
61093;SDS011;46976;52.942;6.810;2022-12-18T14:46:46;16.92;;;6.10;;
61093;SDS011;46976;52.942;6.810;2022-12-18T14:52:17;15.20;;;6.25;;
61093;SDS011;46976;52.942;6.810;2022-12-18T14:54:37;18.88;;;12.38;;
61093;SDS011;46976;52.942;6.810;2022-12-18T14:57:21;14.55;;;6.05;;
61093;SDS011;46976;52.942;6.810;2022-12-18T14:59:48;14.55;;;6.70;;
61093;SDS011;46976;52.942;6.810;2022-12-18T15:02:22;14.38;;;5.53;;
61093;SDS011;46976;52.942;6.810;2022-12-18T15:04:59;17.48;;;12.82;;
61093;SDS011;46976;52.942;6.810;2022-12-18T15:07:26;13.82;;;5.32;;
61093;SDS011;46976;52.942;6.810;2022-12-18T15:15:03;16.13;;;6.43;;
61093;SDS011;46976;52.942;6.810;2022-12-18T15:17:29;16.33;;;6.38;;
61093;SDS011;46976;52.942;6.810;2022-12-18T15:20:00;14.35;;;6.32;;
61093;SDS011;46976;52.942;6.810;2022-12-18T15:22:27;16.08;;;6.40;;
61093;SDS011;46976;52.942;6.810;2022-12-18T15:24:55;16.90;;;5.75;;
61093;SDS011;46976;52.942;6.810;2022-12-18T15:27:23;13.80;;;6.63;;
61093;SDS011;46976;52.942;6.810;2022-12-18T15:30:01;18.85;;;13.40;;
61093;SDS011;46976;52.942;6.810;2022-12-18T15:32:28;15.45;;;6.22;;
61093;SDS011;46976;52.942;6.810;2022-12-18T15:37:39;15.85;;;6.88;;
61093;SDS011;46976;52.942;6.810;2022-12-18T15:40:05;16.10;;;6.45;;
61093;SDS011;46976;52.942;6.810;2022-12-18T15:42:32;18.25;;;12.98;;
61093;SDS011;46976;52.942;6.810;2022-12-18T15:45:16;15.52;;;6.35;;
61093;SDS011;46976;52.942;6.810;2022-12-18T15:47:43;19.30;;;13.98;;
61093;SDS011;46976;52.942;6.810;2022-12-18T15:50:09;14.10;;;5.57;;
61093;SDS011;46976;52.942;6.810;2022-12-18T15:52:39;19.20;;;13.68;;
61093;SDS011;46976;52.942;6.810;2022-12-18T15:55:09;13.95;;;6.20;;
61093;SDS011;46976;52.942;6.810;2022-12-18T15:57:55;15.82;;;6.43;;
61093;SDS011;46976;52.942;6.810;2022-12-18T16:00:21;19.65;;;13.05;;
61093;SDS011;46976;52.942;6.810;2022-12-18T16:02:47;14.88;;;5.97;;
61093;SDS011;46976;52.942;6.810;2022-12-18T16:05:14;15.20;;;6.53;;
61093;SDS011;46976;52.942;6.810;2022-12-18T16:07:41;19.40;;;13.43;;
61093;SDS011;46976;52.942;6.810;2022-12-18T16:10:08;15.65;;;6.75;;
61093;SDS011;46976;52.942;6.810;2022-12-18T16:12:34;13.45;;;5.55;;
61093;SDS011;46976;52.942;6.810;2022-12-18T16:15:00;13.30;;;5.93;;
61093;SDS011;46976;52.942;6.810;2022-12-18T16:17:26;12.40;;;5.30;;
61093;SDS011;46976;52.942;6.810;2022-12-18T16:19:52;15.93;;;6.13;;
61093;SDS011;46976;52.942;6.810;2022-12-18T16:22:22;12.45;;;5.57;;
61093;SDS011;46976;52.942;6.810;2022-12-18T16:24:49;14.98;;;5.68;;
61093;SDS011;46976;52.942;6.810;2022-12-18T16:27:16;17.38;;;12.52;;
61093;SDS011;46976;52.942;6.810;2022-12-18T16:29:42;17.05;;;6.80;;
61093;SDS011;46976;52.942;6.810;2022-12-18T16:32:09;13.40;;;5.25;;
61093;SDS011;46976;52.942;6.810;2022-12-18T16:37:04;15.05;;;5.55;;
61093;SDS011;46976;52.942;6.810;2022-12-18T16:39:31;14.38;;;5.68;;
61093;SDS011;46976;52.942;6.810;2022-12-18T16:41:58;14.15;;;5.70;;
61093;SDS011;46976;52.942;6.810;2022-12-18T16:44:24;16.20;;;6.38;;
61093;SDS011;46976;52.942;6.810;2022-12-18T16:46:50;15.00;;;5.22;;
61093;SDS011;46976;52.942;6.810;2022-12-18T16:49:17;12.35;;;5.68;;
61093;SDS011;46976;52.942;6.810;2022-12-18T16:51:45;13.38;;;5.55;;
61093;SDS011;46976;52.942;6.810;2022-12-18T16:54:11;16.92;;;12.25;;
61093;SDS011;46976;52.942;6.810;2022-12-18T16:56:37;15.80;;;5.68;;